sensor_id;sensor_type;location;lat;lon;timestamp;temperature;humidity
23283;DHT22;11810;51.178;3.878;2023-03-31T00:01:48;12.30;99.90
23283;DHT22;11810;51.178;3.878;2023-03-31T00:04:14;12.30;99.90
23283;DHT22;11810;51.178;3.878;2023-03-31T00:06:41;12.20;99.90
23283;DHT22;11810;51.178;3.878;2023-03-31T00:09:09;12.20;99.90
23283;DHT22;11810;51.178;3.878;2023-03-31T00:11:36;12.30;99.90
23283;DHT22;11810;51.178;3.878;2023-03-31T00:14:03;12.30;99.90
23283;DHT22;11810;51.178;3.878;2023-03-31T00:16:35;12.20;99.90
23283;DHT22;11810;51.178;3.878;2023-03-31T00:19:01;12.30;99.90
23283;DHT22;11810;51.178;3.878;2023-03-31T00:21:28;12.30;99.90
23283;DHT22;11810;51.178;3.878;2023-03-31T00:24:03;12.20;99.90
23283;DHT22;11810;51.178;3.878;2023-03-31T00:26:30;12.20;99.90
23283;DHT22;11810;51.178;3.878;2023-03-31T00:28:57;12.30;99.90
23283;DHT22;11810;51.178;3.878;2023-03-31T00:31:24;12.20;99.90
23283;DHT22;11810;51.178;3.878;2023-03-31T00:33:52;12.20;99.90
23283;DHT22;11810;51.178;3.878;2023-03-31T00:36:19;12.20;99.90
23283;DHT22;11810;51.178;3.878;2023-03-31T00:39:04;12.20;99.90
23283;DHT22;11810;51.178;3.878;2023-03-31T00:41:34;12.20;99.90
23283;DHT22;11810;51.178;3.878;2023-03-31T00:44:11;12.20;99.90
23283;DHT22;11810;51.178;3.878;2023-03-31T00:46:55;12.20;99.90
23283;DHT22;11810;51.178;3.878;2023-03-31T00:51:55;12.00;99.90
23283;DHT22;11810;51.178;3.878;2023-03-31T00:54:23;12.10;99.90
23283;DHT22;11810;51.178;3.878;2023-03-31T00:56:53;12.00;99.90
23283;DHT22;11810;51.178;3.878;2023-03-31T00:59:24;11.90;99.90
23283;DHT22;11810;51.178;3.878;2023-03-31T01:01:52;11.90;99.90
23283;DHT22;11810;51.178;3.878;2023-03-31T01:04:19;11.90;99.90
23283;DHT22;11810;51.178;3.878;2023-03-31T01:07:02;11.90;99.90
23283;DHT22;11810;51.178;3.878;2023-03-31T01:09:30;12.00;99.90
23283;DHT22;11810;51.178;3.878;2023-03-31T01:12:01;12.00;99.90
23283;DHT22;11810;51.178;3.878;2023-03-31T01:14:29;12.00;99.90
23283;DHT22;11810;51.178;3.878;2023-03-31T01:16:55;12.00;99.90
23283;DHT22;11810;51.178;3.878;2023-03-31T01:31:03;12.00;99.90
23283;DHT22;11810;51.178;3.878;2023-03-31T01:34:15;12.10;99.90
23283;DHT22;11810;51.178;3.878;2023-03-31T01:37:08;12.00;99.90
23283;DHT22;11810;51.178;3.878;2023-03-31T01:42:58;12.10;99.90
23283;DHT22;11810;51.178;3.878;2023-03-31T01:46:17;12.10;99.90
23283;DHT22;11810;51.178;3.878;2023-03-31T01:48:58;12.00;99.90
23283;DHT22;11810;51.178;3.878;2023-03-31T01:54:31;11.80;99.90
23283;DHT22;11810;51.178;3.878;2023-03-31T01:57:02;11.90;99.90
23283;DHT22;11810;51.178;3.878;2023-03-31T02:02:35;11.90;99.90
23283;DHT22;11810;51.178;3.878;2023-03-31T02:05:11;11.90;99.90
23283;DHT22;11810;51.178;3.878;2023-03-31T02:07:49;11.90;99.90
23283;DHT22;11810;51.178;3.878;2023-03-31T02:10:17;12.00;99.90
23283;DHT22;11810;51.178;3.878;2023-03-31T02:12:44;12.00;99.90
23283;DHT22;11810;51.178;3.878;2023-03-31T02:15:14;11.90;99.90
23283;DHT22;11810;51.178;3.878;2023-03-31T02:17:45;11.80;99.90
23283;DHT22;11810;51.178;3.878;2023-03-31T02:20:14;11.80;99.90
23283;DHT22;11810;51.178;3.878;2023-03-31T02:22:46;11.90;99.90
23283;DHT22;11810;51.178;3.878;2023-03-31T02:25:16;11.90;99.90
23283;DHT22;11810;51.178;3.878;2023-03-31T02:27:46;11.90;99.90
23283;DHT22;11810;51.178;3.878;2023-03-31T02:30:14;11.80;99.90
23283;DHT22;11810;51.178;3.878;2023-03-31T02:32:41;11.80;99.90
23283;DHT22;11810;51.178;3.878;2023-03-31T02:35:18;11.70;99.90
23283;DHT22;11810;51.178;3.878;2023-03-31T02:37:45;11.70;99.90
23283;DHT22;11810;51.178;3.878;2023-03-31T02:41:58;11.80;99.90
23283;DHT22;11810;51.178;3.878;2023-03-31T02:44:27;11.70;99.90
23283;DHT22;11810;51.178;3.878;2023-03-31T02:46:53;11.70;99.90
23283;DHT22;11810;51.178;3.878;2023-03-31T02:49:20;11.60;99.90
23283;DHT22;11810;51.178;3.878;2023-03-31T03:03:05;11.70;99.90
23283;DHT22;11810;51.178;3.878;2023-03-31T03:13:46;11.70;99.90
23283;DHT22;11810;51.178;3.878;2023-03-31T03:16:25;11.70;99.90
23283;DHT22;11810;51.178;3.878;2023-03-31T03:19:01;11.60;99.90
23283;DHT22;11810;51.178;3.878;2023-03-31T03:21:28;11.60;99.90
23283;DHT22;11810;51.178;3.878;2023-03-31T03:23:54;11.60;99.90
23283;DHT22;11810;51.178;3.878;2023-03-31T03:26:21;11.50;99.90
23283;DHT22;11810;51.178;3.878;2023-03-31T03:28:51;11.50;99.90
23283;DHT22;11810;51.178;3.878;2023-03-31T03:31:18;11.50;99.90
23283;DHT22;11810;51.178;3.878;2023-03-31T03:33:44;11.50;99.90
23283;DHT22;11810;51.178;3.878;2023-03-31T03:36:11;11.50;99.90
23283;DHT22;11810;51.178;3.878;2023-03-31T03:38:37;11.50;99.90
23283;DHT22;11810;51.178;3.878;2023-03-31T03:41:03;11.50;99.90
23283;DHT22;11810;51.178;3.878;2023-03-31T03:43:29;11.40;99.90
23283;DHT22;11810;51.178;3.878;2023-03-31T03:45:55;11.50;99.90
23283;DHT22;11810;51.178;3.878;2023-03-31T03:48:21;11.50;99.90
23283;DHT22;11810;51.178;3.878;2023-03-31T03:50:47;11.50;99.90
23283;DHT22;11810;51.178;3.878;2023-03-31T03:53:14;11.40;99.90
23283;DHT22;11810;51.178;3.878;2023-03-31T03:55:40;11.50;99.90
23283;DHT22;11810;51.178;3.878;2023-03-31T03:58:06;11.40;99.90
23283;DHT22;11810;51.178;3.878;2023-03-31T04:00:32;11.30;99.90
23283;DHT22;11810;51.178;3.878;2023-03-31T04:02:58;11.40;99.90
23283;DHT22;11810;51.178;3.878;2023-03-31T04:05:23;11.30;99.90
23283;DHT22;11810;51.178;3.878;2023-03-31T04:07:49;11.30;99.90
23283;DHT22;11810;51.178;3.878;2023-03-31T04:10:15;11.20;99.90
23283;DHT22;11810;51.178;3.878;2023-03-31T04:12:41;11.10;99.90
23283;DHT22;11810;51.178;3.878;2023-03-31T04:15:07;11.10;99.90
23283;DHT22;11810;51.178;3.878;2023-03-31T04:17:34;11.00;99.90
23283;DHT22;11810;51.178;3.878;2023-03-31T04:20:03;10.90;99.90
23283;DHT22;11810;51.178;3.878;2023-03-31T04:22:33;10.90;99.90
23283;DHT22;11810;51.178;3.878;2023-03-31T04:25:03;10.90;99.90
23283;DHT22;11810;51.178;3.878;2023-03-31T04:27:30;10.90;99.90
23283;DHT22;11810;51.178;3.878;2023-03-31T04:29:58;11.00;99.90
23283;DHT22;11810;51.178;3.878;2023-03-31T04:32:24;11.00;99.90
23283;DHT22;11810;51.178;3.878;2023-03-31T04:34:50;11.00;99.90
23283;DHT22;11810;51.178;3.878;2023-03-31T04:37:16;11.00;99.90
23283;DHT22;11810;51.178;3.878;2023-03-31T04:39:42;11.00;99.90
23283;DHT22;11810;51.178;3.878;2023-03-31T04:42:11;11.10;99.90
23283;DHT22;11810;51.178;3.878;2023-03-31T04:44:37;11.20;99.90
23283;DHT22;11810;51.178;3.878;2023-03-31T04:47:03;11.20;99.90
23283;DHT22;11810;51.178;3.878;2023-03-31T04:49:31;11.10;99.90
23283;DHT22;11810;51.178;3.878;2023-03-31T04:51:58;11.10;99.90
23283;DHT22;11810;51.178;3.878;2023-03-31T04:54:24;11.10;99.90
23283;DHT22;11810;51.178;3.878;2023-03-31T04:56:50;11.10;99.90
23283;DHT22;11810;51.178;3.878;2023-03-31T04:59:15;11.00;99.90
23283;DHT22;11810;51.178;3.878;2023-03-31T05:01:41;11.00;99.90
23283;DHT22;11810;51.178;3.878;2023-03-31T05:04:09;11.10;99.90
23283;DHT22;11810;51.178;3.878;2023-03-31T05:06:35;10.90;99.90
23283;DHT22;11810;51.178;3.878;2023-03-31T05:09:01;11.00;99.90
23283;DHT22;11810;51.178;3.878;2023-03-31T05:11:27;10.90;99.90
23283;DHT22;11810;51.178;3.878;2023-03-31T05:13:53;11.00;99.90
23283;DHT22;11810;51.178;3.878;2023-03-31T05:16:19;11.00;99.90
23283;DHT22;11810;51.178;3.878;2023-03-31T05:18:46;11.00;99.90
23283;DHT22;11810;51.178;3.878;2023-03-31T05:21:19;10.90;99.90
23283;DHT22;11810;51.178;3.878;2023-03-31T05:23:45;11.00;99.90
23283;DHT22;11810;51.178;3.878;2023-03-31T05:26:12;11.00;99.90
23283;DHT22;11810;51.178;3.878;2023-03-31T05:28:38;11.00;99.90
23283;DHT22;11810;51.178;3.878;2023-03-31T05:31:06;11.00;99.90
23283;DHT22;11810;51.178;3.878;2023-03-31T05:33:32;11.10;99.90
23283;DHT22;11810;51.178;3.878;2023-03-31T05:35:58;11.20;99.90
23283;DHT22;11810;51.178;3.878;2023-03-31T05:38:25;11.30;99.90
23283;DHT22;11810;51.178;3.878;2023-03-31T05:40:54;11.20;99.90
23283;DHT22;11810;51.178;3.878;2023-03-31T05:43:20;11.20;99.90
23283;DHT22;11810;51.178;3.878;2023-03-31T05:45:46;11.20;99.90
23283;DHT22;11810;51.178;3.878;2023-03-31T05:48:12;11.20;99.90
23283;DHT22;11810;51.178;3.878;2023-03-31T05:50:38;11.30;99.90
23283;DHT22;11810;51.178;3.878;2023-03-31T05:53:04;11.40;99.90
23283;DHT22;11810;51.178;3.878;2023-03-31T05:55:30;11.40;99.90
23283;DHT22;11810;51.178;3.878;2023-03-31T05:57:56;11.40;99.90
23283;DHT22;11810;51.178;3.878;2023-03-31T06:00:22;11.40;99.90
23283;DHT22;11810;51.178;3.878;2023-03-31T06:02:47;11.40;99.90
23283;DHT22;11810;51.178;3.878;2023-03-31T06:05:13;11.30;99.90
23283;DHT22;11810;51.178;3.878;2023-03-31T06:07:39;11.30;99.90
23283;DHT22;11810;51.178;3.878;2023-03-31T06:10:06;11.40;99.90
23283;DHT22;11810;51.178;3.878;2023-03-31T06:12:33;11.40;99.90
23283;DHT22;11810;51.178;3.878;2023-03-31T06:14:59;11.50;99.90
23283;DHT22;11810;51.178;3.878;2023-03-31T06:17:25;11.60;99.90
23283;DHT22;11810;51.178;3.878;2023-03-31T06:19:51;11.50;99.90
23283;DHT22;11810;51.178;3.878;2023-03-31T06:22:17;11.60;99.90
23283;DHT22;11810;51.178;3.878;2023-03-31T06:24:42;11.60;99.90
23283;DHT22;11810;51.178;3.878;2023-03-31T06:27:08;11.70;99.90
23283;DHT22;11810;51.178;3.878;2023-03-31T06:29:34;11.70;99.90
23283;DHT22;11810;51.178;3.878;2023-03-31T06:32:00;11.60;99.90
23283;DHT22;11810;51.178;3.878;2023-03-31T06:34:26;11.60;99.90
23283;DHT22;11810;51.178;3.878;2023-03-31T06:36:52;11.60;99.90
23283;DHT22;11810;51.178;3.878;2023-03-31T06:39:18;11.70;99.90
23283;DHT22;11810;51.178;3.878;2023-03-31T06:41:44;11.70;99.90
23283;DHT22;11810;51.178;3.878;2023-03-31T06:44:10;11.90;99.90
23283;DHT22;11810;51.178;3.878;2023-03-31T06:46:37;11.80;99.90
23283;DHT22;11810;51.178;3.878;2023-03-31T06:49:02;11.80;99.90
23283;DHT22;11810;51.178;3.878;2023-03-31T06:51:28;11.70;99.90
23283;DHT22;11810;51.178;3.878;2023-03-31T06:53:54;11.80;99.90
23283;DHT22;11810;51.178;3.878;2023-03-31T06:56:20;11.70;99.90
23283;DHT22;11810;51.178;3.878;2023-03-31T06:58:46;11.80;99.90
23283;DHT22;11810;51.178;3.878;2023-03-31T07:01:12;11.90;99.90
23283;DHT22;11810;51.178;3.878;2023-03-31T07:03:38;11.80;99.90
23283;DHT22;11810;51.178;3.878;2023-03-31T07:06:04;11.80;99.90
23283;DHT22;11810;51.178;3.878;2023-03-31T07:08:30;11.90;99.90
23283;DHT22;11810;51.178;3.878;2023-03-31T07:10:58;11.90;99.90
23283;DHT22;11810;51.178;3.878;2023-03-31T07:13:25;11.90;99.90
23283;DHT22;11810;51.178;3.878;2023-03-31T07:15:51;11.90;99.90
23283;DHT22;11810;51.178;3.878;2023-03-31T07:18:18;12.00;99.90
23283;DHT22;11810;51.178;3.878;2023-03-31T07:20:47;12.10;99.90
23283;DHT22;11810;51.178;3.878;2023-03-31T07:23:15;12.00;99.90
23283;DHT22;11810;51.178;3.878;2023-03-31T07:25:41;12.10;99.90
23283;DHT22;11810;51.178;3.878;2023-03-31T07:28:07;12.20;99.90
23283;DHT22;11810;51.178;3.878;2023-03-31T07:30:33;12.10;99.90
23283;DHT22;11810;51.178;3.878;2023-03-31T07:32:59;12.30;99.90
23283;DHT22;11810;51.178;3.878;2023-03-31T07:35:26;12.30;99.90
23283;DHT22;11810;51.178;3.878;2023-03-31T07:37:52;12.30;99.90
23283;DHT22;11810;51.178;3.878;2023-03-31T07:40:21;12.30;99.90
23283;DHT22;11810;51.178;3.878;2023-03-31T07:42:47;12.40;99.90
23283;DHT22;11810;51.178;3.878;2023-03-31T07:45:15;12.50;99.90
23283;DHT22;11810;51.178;3.878;2023-03-31T07:47:42;12.60;99.90
23283;DHT22;11810;51.178;3.878;2023-03-31T07:50:09;12.60;99.90
23283;DHT22;11810;51.178;3.878;2023-03-31T07:52:35;12.50;99.90
23283;DHT22;11810;51.178;3.878;2023-03-31T07:55:02;12.50;99.90
23283;DHT22;11810;51.178;3.878;2023-03-31T07:57:28;12.60;99.90
23283;DHT22;11810;51.178;3.878;2023-03-31T07:59:54;12.60;99.90
23283;DHT22;11810;51.178;3.878;2023-03-31T08:02:20;12.60;99.90
23283;DHT22;11810;51.178;3.878;2023-03-31T08:04:46;12.60;99.90
23283;DHT22;11810;51.178;3.878;2023-03-31T08:07:14;12.40;99.90
23283;DHT22;11810;51.178;3.878;2023-03-31T08:09:44;12.40;99.90
23283;DHT22;11810;51.178;3.878;2023-03-31T08:12:10;12.40;99.90
23283;DHT22;11810;51.178;3.878;2023-03-31T08:14:37;12.30;99.90
23283;DHT22;11810;51.178;3.878;2023-03-31T08:17:03;12.40;99.90
23283;DHT22;11810;51.178;3.878;2023-03-31T08:19:29;12.60;99.90
23283;DHT22;11810;51.178;3.878;2023-03-31T08:21:55;12.70;99.90
23283;DHT22;11810;51.178;3.878;2023-03-31T08:24:21;12.90;99.90
23283;DHT22;11810;51.178;3.878;2023-03-31T08:26:47;13.00;99.90
23283;DHT22;11810;51.178;3.878;2023-03-31T08:29:13;13.10;99.90
23283;DHT22;11810;51.178;3.878;2023-03-31T08:31:39;13.20;99.90
23283;DHT22;11810;51.178;3.878;2023-03-31T08:34:05;13.10;99.90
23283;DHT22;11810;51.178;3.878;2023-03-31T08:36:31;13.00;99.90
23283;DHT22;11810;51.178;3.878;2023-03-31T08:38:58;12.90;99.90
23283;DHT22;11810;51.178;3.878;2023-03-31T08:43:55;12.80;99.90
23283;DHT22;11810;51.178;3.878;2023-03-31T08:46:22;12.80;99.90
23283;DHT22;11810;51.178;3.878;2023-03-31T08:48:58;12.80;99.90
23283;DHT22;11810;51.178;3.878;2023-03-31T08:51:40;12.70;99.90
23283;DHT22;11810;51.178;3.878;2023-03-31T08:56:52;12.70;99.90
23283;DHT22;11810;51.178;3.878;2023-03-31T08:59:34;12.80;99.90
23283;DHT22;11810;51.178;3.878;2023-03-31T09:02:28;12.90;99.90
23283;DHT22;11810;51.178;3.878;2023-03-31T09:05:13;12.90;99.90
23283;DHT22;11810;51.178;3.878;2023-03-31T09:10:58;12.90;99.90
23283;DHT22;11810;51.178;3.878;2023-03-31T09:16:26;12.90;99.90
23283;DHT22;11810;51.178;3.878;2023-03-31T09:18:59;12.80;99.90
23283;DHT22;11810;51.178;3.878;2023-03-31T09:21:39;12.90;99.90
23283;DHT22;11810;51.178;3.878;2023-03-31T09:26:40;12.80;99.90
23283;DHT22;11810;51.178;3.878;2023-03-31T09:29:23;12.70;99.90
23283;DHT22;11810;51.178;3.878;2023-03-31T09:31:51;12.60;99.90
23283;DHT22;11810;51.178;3.878;2023-03-31T09:34:30;12.60;99.90
23283;DHT22;11810;51.178;3.878;2023-03-31T09:36:57;12.50;99.90
23283;DHT22;11810;51.178;3.878;2023-03-31T09:39:23;12.50;99.90
23283;DHT22;11810;51.178;3.878;2023-03-31T09:41:50;12.50;99.90
23283;DHT22;11810;51.178;3.878;2023-03-31T09:44:36;12.50;99.90
23283;DHT22;11810;51.178;3.878;2023-03-31T09:47:05;12.40;99.90
23283;DHT22;11810;51.178;3.878;2023-03-31T09:49:35;12.40;99.90
23283;DHT22;11810;51.178;3.878;2023-03-31T09:52:15;12.40;99.90
23283;DHT22;11810;51.178;3.878;2023-03-31T09:54:51;12.50;99.90
23283;DHT22;11810;51.178;3.878;2023-03-31T09:57:33;12.70;99.90
23283;DHT22;11810;51.178;3.878;2023-03-31T10:00:12;13.00;99.90
23283;DHT22;11810;51.178;3.878;2023-03-31T10:02:56;13.00;99.90
23283;DHT22;11810;51.178;3.878;2023-03-31T10:10:52;13.10;99.90
23283;DHT22;11810;51.178;3.878;2023-03-31T10:16:05;13.20;99.90
23283;DHT22;11810;51.178;3.878;2023-03-31T10:18:42;13.00;99.90
23283;DHT22;11810;51.178;3.878;2023-03-31T10:21:21;12.80;99.90
23283;DHT22;11810;51.178;3.878;2023-03-31T10:23:49;12.50;99.90
23283;DHT22;11810;51.178;3.878;2023-03-31T10:26:21;12.30;99.90
23283;DHT22;11810;51.178;3.878;2023-03-31T10:28:49;12.20;99.90
23283;DHT22;11810;51.178;3.878;2023-03-31T10:31:18;11.90;99.90
23283;DHT22;11810;51.178;3.878;2023-03-31T10:33:49;11.90;99.90
23283;DHT22;11810;51.178;3.878;2023-03-31T10:36:27;11.90;99.90
23283;DHT22;11810;51.178;3.878;2023-03-31T10:38:55;11.90;99.90
23283;DHT22;11810;51.178;3.878;2023-03-31T10:41:23;11.90;99.90
23283;DHT22;11810;51.178;3.878;2023-03-31T10:43:57;12.00;99.90
23283;DHT22;11810;51.178;3.878;2023-03-31T10:49:42;12.20;99.90
23283;DHT22;11810;51.178;3.878;2023-03-31T10:52:17;12.20;99.90
23283;DHT22;11810;51.178;3.878;2023-03-31T10:54:48;12.30;99.90
23283;DHT22;11810;51.178;3.878;2023-03-31T10:57:15;12.30;99.90
23283;DHT22;11810;51.178;3.878;2023-03-31T11:10:41;12.80;99.90
23283;DHT22;11810;51.178;3.878;2023-03-31T11:16:29;12.80;99.90
23283;DHT22;11810;51.178;3.878;2023-03-31T11:18:56;13.10;99.90
23283;DHT22;11810;51.178;3.878;2023-03-31T11:24:04;13.00;99.90
23283;DHT22;11810;51.178;3.878;2023-03-31T11:27:16;13.00;99.90
23283;DHT22;11810;51.178;3.878;2023-03-31T11:29:56;13.10;99.90
23283;DHT22;11810;51.178;3.878;2023-03-31T11:41:11;12.60;99.90
23283;DHT22;11810;51.178;3.878;2023-03-31T11:43:51;12.60;99.90
23283;DHT22;11810;51.178;3.878;2023-03-31T11:46:30;12.60;99.90
23283;DHT22;11810;51.178;3.878;2023-03-31T11:49:05;12.70;99.90
23283;DHT22;11810;51.178;3.878;2023-03-31T11:56:53;12.40;99.90
23283;DHT22;11810;51.178;3.878;2023-03-31T11:59:21;12.40;99.90
23283;DHT22;11810;51.178;3.878;2023-03-31T12:02:09;12.40;99.90
23283;DHT22;11810;51.178;3.878;2023-03-31T12:04:43;12.20;99.90
23283;DHT22;11810;51.178;3.878;2023-03-31T12:07:40;12.20;99.90
23283;DHT22;11810;51.178;3.878;2023-03-31T12:10:17;12.10;99.90
23283;DHT22;11810;51.178;3.878;2023-03-31T12:19:10;11.90;99.90
23283;DHT22;11810;51.178;3.878;2023-03-31T12:21:43;12.00;99.90
23283;DHT22;11810;51.178;3.878;2023-03-31T12:24:12;12.00;99.90
23283;DHT22;11810;51.178;3.878;2023-03-31T12:32:29;11.80;99.90
23283;DHT22;11810;51.178;3.878;2023-03-31T12:38:05;11.60;99.90
23283;DHT22;11810;51.178;3.878;2023-03-31T12:49:21;11.40;99.90
23283;DHT22;11810;51.178;3.878;2023-03-31T12:54:56;11.40;99.90
23283;DHT22;11810;51.178;3.878;2023-03-31T12:57:27;11.60;99.90
23283;DHT22;11810;51.178;3.878;2023-03-31T13:00:23;11.80;99.90
23283;DHT22;11810;51.178;3.878;2023-03-31T13:02:50;11.90;99.90
23283;DHT22;11810;51.178;3.878;2023-03-31T13:08:04;11.60;99.90
23283;DHT22;11810;51.178;3.878;2023-03-31T13:10:31;11.60;99.90
23283;DHT22;11810;51.178;3.878;2023-03-31T13:13:18;11.70;99.90
23283;DHT22;11810;51.178;3.878;2023-03-31T13:15:52;11.70;99.90
23283;DHT22;11810;51.178;3.878;2023-03-31T13:18:20;11.80;99.90
23283;DHT22;11810;51.178;3.878;2023-03-31T13:21:03;11.90;99.90
23283;DHT22;11810;51.178;3.878;2023-03-31T13:23:36;11.70;99.90
23283;DHT22;11810;51.178;3.878;2023-03-31T13:45:00;11.60;99.90
23283;DHT22;11810;51.178;3.878;2023-03-31T13:48:01;11.60;99.90
23283;DHT22;11810;51.178;3.878;2023-03-31T13:50:49;11.60;99.90
23283;DHT22;11810;51.178;3.878;2023-03-31T13:53:52;11.40;99.90
23283;DHT22;11810;51.178;3.878;2023-03-31T14:07:39;11.70;99.90
23283;DHT22;11810;51.178;3.878;2023-03-31T14:10:21;11.70;99.90
23283;DHT22;11810;51.178;3.878;2023-03-31T14:12:47;11.60;99.90
23283;DHT22;11810;51.178;3.878;2023-03-31T14:15:19;11.50;99.90
23283;DHT22;11810;51.178;3.878;2023-03-31T14:17:45;11.40;99.90
23283;DHT22;11810;51.178;3.878;2023-03-31T14:20:34;11.50;99.90
23283;DHT22;11810;51.178;3.878;2023-03-31T14:37:33;11.40;99.90
23283;DHT22;11810;51.178;3.878;2023-03-31T14:40:00;11.30;99.90
23283;DHT22;11810;51.178;3.878;2023-03-31T14:42:37;11.40;99.90
23283;DHT22;11810;51.178;3.878;2023-03-31T14:45:13;11.50;99.90
23283;DHT22;11810;51.178;3.878;2023-03-31T14:47:40;11.60;99.90
23283;DHT22;11810;51.178;3.878;2023-03-31T14:50:16;11.60;99.90
23283;DHT22;11810;51.178;3.878;2023-03-31T14:52:47;11.60;99.90
23283;DHT22;11810;51.178;3.878;2023-03-31T14:55:15;11.40;99.90
23283;DHT22;11810;51.178;3.878;2023-03-31T14:57:43;11.50;99.90
23283;DHT22;11810;51.178;3.878;2023-03-31T15:00:14;11.50;99.90
23283;DHT22;11810;51.178;3.878;2023-03-31T15:02:43;11.60;99.90
23283;DHT22;11810;51.178;3.878;2023-03-31T15:07:47;11.40;99.90
23283;DHT22;11810;51.178;3.878;2023-03-31T15:10:19;11.40;99.90
23283;DHT22;11810;51.178;3.878;2023-03-31T15:12:46;11.30;99.90
23283;DHT22;11810;51.178;3.878;2023-03-31T15:15:14;11.40;99.90
23283;DHT22;11810;51.178;3.878;2023-03-31T15:17:41;11.30;99.90
23283;DHT22;11810;51.178;3.878;2023-03-31T15:20:35;11.30;99.90
23283;DHT22;11810;51.178;3.878;2023-03-31T15:23:04;11.40;99.90
23283;DHT22;11810;51.178;3.878;2023-03-31T15:25:43;11.30;99.90
23283;DHT22;11810;51.178;3.878;2023-03-31T15:28:13;11.20;99.90
23283;DHT22;11810;51.178;3.878;2023-03-31T15:30:41;11.30;99.90
23283;DHT22;11810;51.178;3.878;2023-03-31T15:33:13;11.20;99.90
23283;DHT22;11810;51.178;3.878;2023-03-31T15:35:41;11.10;99.90
23283;DHT22;11810;51.178;3.878;2023-03-31T15:38:10;11.10;99.90
23283;DHT22;11810;51.178;3.878;2023-03-31T15:40:41;11.10;99.90
23283;DHT22;11810;51.178;3.878;2023-03-31T15:43:16;11.00;99.90
23283;DHT22;11810;51.178;3.878;2023-03-31T15:50:47;11.10;99.90
23283;DHT22;11810;51.178;3.878;2023-03-31T15:53:29;11.20;99.90
23283;DHT22;11810;51.178;3.878;2023-03-31T15:55:57;11.10;99.90
23283;DHT22;11810;51.178;3.878;2023-03-31T15:58:53;10.90;99.90
23283;DHT22;11810;51.178;3.878;2023-03-31T16:01:19;11.10;99.90
23283;DHT22;11810;51.178;3.878;2023-03-31T16:03:46;11.10;99.90
23283;DHT22;11810;51.178;3.878;2023-03-31T16:09:10;11.20;99.90
23283;DHT22;11810;51.178;3.878;2023-03-31T16:11:45;11.20;99.90
23283;DHT22;11810;51.178;3.878;2023-03-31T16:16:49;11.10;99.90
23283;DHT22;11810;51.178;3.878;2023-03-31T16:19:17;11.00;99.90
23283;DHT22;11810;51.178;3.878;2023-03-31T16:21:47;11.00;99.90
23283;DHT22;11810;51.178;3.878;2023-03-31T16:24:19;11.00;99.90
23283;DHT22;11810;51.178;3.878;2023-03-31T16:26:47;11.00;99.90
23283;DHT22;11810;51.178;3.878;2023-03-31T16:29:20;11.00;99.90
23283;DHT22;11810;51.178;3.878;2023-03-31T16:31:47;10.90;99.90
23283;DHT22;11810;51.178;3.878;2023-03-31T16:34:13;10.90;99.90
23283;DHT22;11810;51.178;3.878;2023-03-31T16:36:39;10.90;99.90
23283;DHT22;11810;51.178;3.878;2023-03-31T16:39:05;10.80;99.90
23283;DHT22;11810;51.178;3.878;2023-03-31T16:41:33;10.90;99.90
23283;DHT22;11810;51.178;3.878;2023-03-31T16:43:59;10.90;99.90
23283;DHT22;11810;51.178;3.878;2023-03-31T16:46:25;10.90;99.90
23283;DHT22;11810;51.178;3.878;2023-03-31T16:48:51;10.80;99.90
23283;DHT22;11810;51.178;3.878;2023-03-31T16:51:18;10.80;99.90
23283;DHT22;11810;51.178;3.878;2023-03-31T16:53:45;10.70;99.90
23283;DHT22;11810;51.178;3.878;2023-03-31T16:56:12;10.70;99.90
23283;DHT22;11810;51.178;3.878;2023-03-31T16:58:39;10.70;99.90
23283;DHT22;11810;51.178;3.878;2023-03-31T17:01:06;10.70;99.90
23283;DHT22;11810;51.178;3.878;2023-03-31T17:03:33;10.70;99.90
23283;DHT22;11810;51.178;3.878;2023-03-31T17:06:08;10.70;99.90
23283;DHT22;11810;51.178;3.878;2023-03-31T17:08:34;10.70;99.90
23283;DHT22;11810;51.178;3.878;2023-03-31T17:11:01;10.70;99.90
23283;DHT22;11810;51.178;3.878;2023-03-31T17:13:29;10.70;99.90
23283;DHT22;11810;51.178;3.878;2023-03-31T17:15:55;10.70;99.90
23283;DHT22;11810;51.178;3.878;2023-03-31T17:18:21;10.70;99.90
23283;DHT22;11810;51.178;3.878;2023-03-31T17:20:47;10.70;99.90
23283;DHT22;11810;51.178;3.878;2023-03-31T17:23:13;10.70;99.90
23283;DHT22;11810;51.178;3.878;2023-03-31T17:25:46;10.60;99.90
23283;DHT22;11810;51.178;3.878;2023-03-31T17:28:12;10.60;99.90
23283;DHT22;11810;51.178;3.878;2023-03-31T17:30:38;10.70;99.90
23283;DHT22;11810;51.178;3.878;2023-03-31T17:33:04;10.60;99.90
23283;DHT22;11810;51.178;3.878;2023-03-31T17:35:30;10.60;99.90
23283;DHT22;11810;51.178;3.878;2023-03-31T17:37:56;10.60;99.90
23283;DHT22;11810;51.178;3.878;2023-03-31T17:40:23;10.50;99.90
23283;DHT22;11810;51.178;3.878;2023-03-31T17:42:50;10.60;99.90
23283;DHT22;11810;51.178;3.878;2023-03-31T17:45:17;10.60;99.90
23283;DHT22;11810;51.178;3.878;2023-03-31T17:47:43;10.60;99.90
23283;DHT22;11810;51.178;3.878;2023-03-31T17:50:10;10.50;99.90
23283;DHT22;11810;51.178;3.878;2023-03-31T17:52:37;10.60;99.90
23283;DHT22;11810;51.178;3.878;2023-03-31T17:55:04;10.60;99.90
23283;DHT22;11810;51.178;3.878;2023-03-31T17:57:30;10.60;99.90
23283;DHT22;11810;51.178;3.878;2023-03-31T17:59:56;10.60;99.90
23283;DHT22;11810;51.178;3.878;2023-03-31T18:02:23;10.60;99.90
23283;DHT22;11810;51.178;3.878;2023-03-31T18:04:49;10.60;99.90
23283;DHT22;11810;51.178;3.878;2023-03-31T18:07:15;10.60;99.90
23283;DHT22;11810;51.178;3.878;2023-03-31T18:09:43;10.70;99.90
23283;DHT22;11810;51.178;3.878;2023-03-31T18:12:10;10.60;99.90
23283;DHT22;11810;51.178;3.878;2023-03-31T18:14:36;10.70;99.90
23283;DHT22;11810;51.178;3.878;2023-03-31T18:17:02;10.60;99.90
23283;DHT22;11810;51.178;3.878;2023-03-31T18:19:28;10.60;99.90
23283;DHT22;11810;51.178;3.878;2023-03-31T18:21:54;10.60;99.90
23283;DHT22;11810;51.178;3.878;2023-03-31T18:24:20;10.50;99.90
23283;DHT22;11810;51.178;3.878;2023-03-31T18:26:47;10.50;99.90
23283;DHT22;11810;51.178;3.878;2023-03-31T18:29:13;10.50;99.90
23283;DHT22;11810;51.178;3.878;2023-03-31T18:31:39;10.40;99.90
23283;DHT22;11810;51.178;3.878;2023-03-31T18:34:06;10.50;99.90
23283;DHT22;11810;51.178;3.878;2023-03-31T18:36:32;10.60;99.90
23283;DHT22;11810;51.178;3.878;2023-03-31T18:38:58;10.50;99.90
23283;DHT22;11810;51.178;3.878;2023-03-31T18:41:24;10.50;99.90
23283;DHT22;11810;51.178;3.878;2023-03-31T18:43:50;10.50;99.90
23283;DHT22;11810;51.178;3.878;2023-03-31T18:46:17;10.50;99.90
23283;DHT22;11810;51.178;3.878;2023-03-31T18:48:43;10.50;99.90
23283;DHT22;11810;51.178;3.878;2023-03-31T18:51:11;10.40;99.90
23283;DHT22;11810;51.178;3.878;2023-03-31T18:53:39;10.40;99.90
23283;DHT22;11810;51.178;3.878;2023-03-31T18:56:05;10.40;99.90